Portada
METAR-TAF:

METAR-TAF

Aeroports :

Olney-Noble Airport

Olney-Noble, Illinois, Estats Units d'Amèrica

latitud: 38-43-19N, longitud: 088-10-35W, altitud: 147 m

Observació

L'informe es va fer fa 16 minuts, a les 00:15 UTC
Vent calma
Temperatura 19°C
Humitat 52%
Pressió 1016 hPa
Visibilitat: 16.1 km
Cel cobert a una alçada de 11000 ft

METAR: KOLY 040015Z AUTO 00000KT 10SM OVC110 19/09 A3000 RMK AO2 T01880090

Hora: 19:31 (00:31 UTC)


TAF: manca

Observacions i pronòstics meteorològics de més de 4000 aeroports (METAR i TAF).

Les estacions disponibles són els punts grocs i vermells al mapa.

Posi el ratolí al punt desitjat per veure el nom de l'estació.

Feu clic per veure les observacions i els pronòstics meteorològics.

Per canviar el mapa: feu clic els botons verds amb una creu de color negre per apropar; al botó verd amb un guió per allunyar la imatge; o en les fletxes verdes per a mapes adjacents.


METAR-TAF: